Terminal Aerodrome Forecast
Issued by NWS North Platte, NE

Home | Current Version | Previous Version | Text Only | Print | Product List | Glossary Off
Versions: 1 2 3 4 5 6 7 8 9 10 11 12 13 14 15 16 17 18 19

000
FTUS43 KLBF 262207 AAA
TAFVTN
TAF AMD
KVTN 262207Z 2622/2718 14013KT P6SM VCTS BKN070CB OVC120
      TEMPO 2622/2702 VRB20G30KT 3SM TSRAGS BKN040CB
     FM270300 15011KT P6SM SCT120 BKN200
     FM271400 18011KT P6SM SCT200=

USA.gov is the U.S. government's official web portal to all federal, state and local government web resources and services.